หน้าหลัก
METAR-TAF:

METAR-TAF

ท่าอากาศยาน :

Raton Municipal Airport (Crews Field)

Raton, นิวเม็กซิโก, สหรัฐอเมริกา

ละติจูด: 36-44-31N, ลองจิจูด: 104-39-28W, ความสูง: 1935 ม.

การสังเกตสภาพอากาศปัจจุบัน

รายงานได้ทำขึ้นเมื่อ 1 ชั่วโมงและ 9 นาทีที่แล้ว ณ เวลา 04:53 UTC
ลม 10 นอตจากตะวันตก
อุณหภูมิ 17°C
ความชื้น 20%
ความกดอากาศ 1011 hPa
ทัศนวิสัย: 16.1 กม.
ท้องฟ้าแจ่มใส

METAR: KRTN 260453Z AUTO 28010KT 10SM CLR 17/M06 A2986 RMK AO2 SLP021 T01671061

เวลา: 00:02 (06:02 UTC)


TAF: หายไป

สังเกตการณ์สภาพอากาศและพยากรณ์อากาศของสนามบินมากกว่า 4000 แห่ง (รายงาน METAR และ TAF).

สถานีที่ดูได้จะแสดงไว้ด้วยจุดสีเหลืองและสีแดงบนแผนที่.

เลื่อนเมาส์ไปเหนือจุดเพื่อดูชื่อสถานี.

แล้วคลิกเพื่อดูสังเกตการณ์และการพยากรณ์สภาพอากาศ.

ในการเปลี่ยนแผนที่: คลิกที่ปุ่มสีเขียวที่มีกากบาทสีดำเพื่อซูมเข้า; ที่ปุ่มสีเขียวที่มีขีดเพื่อซูมออก; หรือที่ลูกศรสีเขียวเพื่อไปยังแผนที่ที่อยู่ติดกัน.


METAR-TAF: